createdAt,value
2022-10-23T00:00:22.790Z,27.000000
2022-10-23T00:05:26.353Z,16.333333
2022-10-23T00:10:28.158Z,11.000000
2022-10-23T00:15:31.379Z,17.000000
2022-10-23T00:20:33.727Z,20.000000
2022-10-23T00:25:17.035Z,14.000000
2022-10-23T00:30:20.725Z,11.000000
2022-10-23T00:35:20.996Z,10.266667
2022-10-23T00:40:23.567Z,10.000000
2022-10-23T00:45:26.135Z,8.000000
2022-10-23T00:50:29.081Z,7.000000
2022-10-23T00:55:32.638Z,7.666667
2022-10-23T01:00:35.682Z,8.000000
2022-10-23T01:05:17.005Z,10.000000
2022-10-23T01:10:19.756Z,11.000000
2022-10-23T01:15:23.570Z,8.857143
2022-10-23T01:20:26.221Z,8.000000
2022-10-23T01:25:27.678Z,8.000000
2022-10-23T01:30:30.636Z,8.000000
2022-10-23T01:35:34.183Z,8.000000
2022-10-23T01:40:16.094Z,8.000000
2022-10-23T01:45:20.860Z,7.266667
2022-10-23T01:50:22.693Z,7.000000
2022-10-23T01:55:25.280Z,8.333333
2022-10-23T02:00:27.630Z,9.000000
2022-10-23T02:05:31.020Z,13.000000
2022-10-23T02:10:34.434Z,15.000000
2022-10-23T02:15:36.169Z,11.000000
2022-10-23T02:20:18.642Z,9.000000
2022-10-23T02:25:21.600Z,8.285714
2022-10-23T02:30:24.930Z,8.000000
2022-10-23T02:35:27.953Z,10.000000
2022-10-23T02:40:31.520Z,11.000000
2022-10-23T02:45:33.267Z,9.000000
2022-10-23T02:50:35.975Z,8.000000
2022-10-23T02:55:18.429Z,5.800000
2022-10-23T03:00:20.887Z,5.000000
2022-10-23T03:05:24.236Z,8.571429
2022-10-23T03:10:26.733Z,10.000000
2022-10-23T03:15:30.430Z,10.000000
2022-10-23T03:20:33.272Z,10.000000
2022-10-23T03:25:34.719Z,9.333333
2022-10-23T03:30:18.278Z,9.000000
2022-10-23T03:35:19.905Z,9.733333
2022-10-23T03:40:23.273Z,10.000000
2022-10-23T03:45:25.721Z,7.333333
2022-10-23T03:50:28.321Z,6.000000
2022-10-23T03:55:32.244Z,9.333333
2022-10-23T04:00:34.137Z,11.000000
2022-10-23T04:05:16.466Z,8.333333
2022-10-23T04:10:19.085Z,7.000000
2022-10-23T04:15:21.805Z,9.933333
2022-10-23T04:20:24.569Z,11.000000
2022-10-23T04:25:27.180Z,11.000000
2022-10-23T04:30:29.737Z,11.000000
2022-10-23T04:35:33.861Z,11.666667
2022-10-23T04:40:35.709Z,12.000000
2022-10-23T04:45:17.526Z,11.333333
2022-10-23T04:50:21.128Z,11.000000
2022-10-23T04:55:24.088Z,13.142857
2022-10-23T05:00:26.250Z,14.000000
2022-10-23T05:05:28.401Z,8.666667
2022-10-23T05:10:30.973Z,6.000000
2022-10-23T05:15:34.204Z,6.000000
2022-10-23T05:20:16.413Z,6.000000
2022-10-23T05:25:19.649Z,9.666667
2022-10-23T05:30:22.552Z,11.000000
2022-10-23T05:35:24.141Z,8.857143
2022-10-23T05:40:27.301Z,8.000000
2022-10-23T05:45:31.881Z,6.666667
2022-10-23T05:50:33.541Z,6.000000
2022-10-23T05:55:36.428Z,7.333333
2022-10-23T06:00:19.203Z,8.000000
2022-10-23T06:05:21.198Z,26.333333
2022-10-23T06:10:23.726Z,33.000000
2022-10-23T06:15:26.412Z,18.333333
2022-10-23T06:20:28.847Z,11.000000
2022-10-23T06:25:31.108Z,15.000000
2022-10-23T06:30:33.583Z,17.000000
2022-10-23T06:35:16.766Z,12.333333
2022-10-23T06:40:18.230Z,10.000000
2022-10-23T06:45:21.135Z,10.000000
2022-10-23T06:50:24.435Z,10.000000
2022-10-23T06:55:26.476Z,12.000000
2022-10-23T07:00:29.101Z,13.000000
2022-10-23T07:05:31.482Z,11.000000
2022-10-23T07:10:34.619Z,10.000000
2022-10-23T07:15:16.341Z,7.333333
2022-10-23T07:20:19.018Z,6.000000
2022-10-23T07:25:21.535Z,10.400000
2022-10-23T07:30:23.834Z,12.000000
2022-10-23T07:35:26.260Z,9.333333
2022-10-23T07:40:29.833Z,8.000000
2022-10-23T07:45:31.912Z,6.666667
2022-10-23T07:50:33.966Z,6.000000
2022-10-23T07:55:16.244Z,10.000000
2022-10-23T08:00:18.748Z,12.000000
2022-10-23T08:05:22.352Z,10.533333
2022-10-23T08:10:23.773Z,10.000000
2022-10-23T08:15:25.855Z,12.000000
2022-10-23T08:20:28.921Z,13.000000
2022-10-23T08:25:30.062Z,10.333333
2022-10-23T08:30:32.620Z,9.000000
2022-10-23T08:35:35.176Z,9.000000
2022-10-23T08:40:17.335Z,9.000000
2022-10-23T08:45:19.816Z,9.733333
2022-10-23T08:50:22.450Z,10.000000
2022-10-23T08:55:25.096Z,10.000000
2022-10-23T09:00:27.199Z,10.000000
2022-10-23T09:05:30.866Z,10.000000
2022-10-23T09:10:32.402Z,10.000000
2022-10-23T09:15:34.840Z,9.333333
2022-10-23T09:20:17.118Z,9.000000
2022-10-23T09:25:19.653Z,11.933333
2022-10-23T09:30:21.862Z,13.000000
2022-10-23T09:35:25.468Z,13.000000
2022-10-23T09:40:26.804Z,13.000000
2022-10-23T09:45:28.953Z,10.333333
2022-10-23T09:50:31.454Z,9.000000
2022-10-23T09:55:34.156Z,9.000000
2022-10-23T10:00:16.548Z,9.000000
2022-10-23T10:05:19.118Z,11.200000
2022-10-23T10:10:21.808Z,12.000000
2022-10-23T10:15:24.564Z,12.000000
2022-10-23T10:20:26.782Z,12.000000
2022-10-23T10:25:29.232Z,10.000000
2022-10-23T10:30:32.353Z,9.000000
2022-10-23T10:35:34.686Z,11.000000
2022-10-23T10:40:16.701Z,12.000000
2022-10-23T10:45:19.472Z,12.733333
2022-10-23T10:50:21.598Z,13.000000
2022-10-23T10:55:24.431Z,13.000000
2022-10-23T11:00:26.673Z,13.000000
2022-10-23T11:05:28.817Z,11.666667
2022-10-23T11:10:31.809Z,11.000000
2022-10-23T11:15:34.574Z,11.000000
2022-10-23T11:20:17.488Z,11.000000
2022-10-23T11:25:19.854Z,11.000000
2022-10-23T11:30:23.154Z,11.000000
2022-10-23T11:35:24.101Z,8.142857
2022-10-23T11:40:26.423Z,7.000000
2022-10-23T11:45:29.961Z,7.000000
2022-10-23T11:50:31.148Z,7.000000
2022-10-23T11:55:33.470Z,6.333333
2022-10-23T12:00:36.207Z,6.000000
2022-10-23T12:05:18.577Z,8.200000
2022-10-23T12:10:20.649Z,9.000000
2022-10-23T12:15:23.366Z,7.571429
2022-10-23T12:20:25.708Z,7.000000
2022-10-23T12:25:28.242Z,6.333333
2022-10-23T12:30:30.275Z,6.000000
2022-10-23T12:35:32.951Z,6.000000
2022-10-23T12:40:35.422Z,6.000000
2022-10-23T12:45:17.367Z,6.000000
2022-10-23T12:50:19.583Z,6.000000
2022-10-23T12:55:22.397Z,5.285714
2022-10-23T13:00:24.494Z,5.000000
2022-10-23T13:05:26.751Z,5.000000
2022-10-23T13:10:28.990Z,5.000000
2022-10-23T13:15:32.514Z,6.333333
2022-10-23T13:20:34.003Z,7.000000
2022-10-23T13:25:16.096Z,6.333333
2022-10-23T13:30:19.744Z,6.000000
2022-10-23T13:35:22.337Z,6.000000
2022-10-23T13:40:23.352Z,6.000000
2022-10-23T13:45:26.288Z,6.666667
2022-10-23T13:50:30.236Z,7.000000
2022-10-23T13:55:32.051Z,5.666667
2022-10-23T14:00:35.575Z,5.000000
2022-10-23T14:05:17.087Z,5.666667
2022-10-23T14:10:24.482Z,6.000000
2022-10-23T14:15:22.674Z,6.714286
2022-10-23T14:20:27.873Z,7.000000
2022-10-23T14:25:28.750Z,6.333333
2022-10-23T14:30:32.019Z,6.000000
2022-10-23T14:35:34.875Z,6.000000
2022-10-23T14:40:16.412Z,6.000000
2022-10-23T14:45:20.082Z,6.733333
2022-10-23T14:50:21.391Z,7.000000
2022-10-23T14:55:24.200Z,7.000000
2022-10-23T15:00:26.385Z,7.000000
2022-10-23T15:05:31.007Z,6.333333
2022-10-23T15:10:32.925Z,6.000000
2022-10-23T15:15:16.245Z,6.000000
2022-10-23T15:20:18.052Z,6.000000
2022-10-23T15:25:21.505Z,6.733333
2022-10-23T15:30:24.233Z,7.000000
2022-10-23T15:35:33.466Z,7.000000
2022-10-23T15:40:29.901Z,7.000000
2022-10-23T15:45:32.435Z,6.333333
2022-10-23T15:50:34.294Z,6.000000
2022-10-23T15:55:17.133Z,6.666667
2022-10-23T16:00:20.611Z,7.000000
2022-10-23T16:05:23.365Z,7.000000
2022-10-23T16:10:25.573Z,7.000000
2022-10-23T16:15:29.704Z,7.000000
2022-10-23T16:20:32.977Z,7.000000
2022-10-23T16:25:34.599Z,7.000000
2022-10-23T16:30:17.256Z,7.000000
2022-10-23T16:35:20.039Z,7.000000
2022-10-23T16:40:22.469Z,7.000000
2022-10-23T16:45:25.596Z,7.000000
2022-10-23T16:50:29.413Z,7.000000
2022-10-23T16:55:30.636Z,7.000000
2022-10-23T17:00:33.387Z,7.000000
2022-10-23T17:05:36.665Z,9.000000
2022-10-23T17:10:18.383Z,10.000000
2022-10-23T17:15:21.103Z,10.000000
2022-10-23T17:20:25.127Z,10.000000
2022-10-23T17:25:26.697Z,7.333333
2022-10-23T17:30:30.726Z,6.000000
2022-10-23T17:35:32.334Z,6.000000
2022-10-23T17:40:35.046Z,6.000000
2022-10-23T17:45:17.786Z,7.333333
2022-10-23T17:50:22.039Z,8.000000
2022-10-23T17:55:25.192Z,6.571429
2022-10-23T18:00:28.036Z,6.000000
2022-10-23T18:05:31.413Z,6.000000
2022-10-23T18:10:34.188Z,6.000000
2022-10-23T18:15:16.622Z,6.000000
2022-10-23T18:20:19.959Z,6.000000
2022-10-23T18:25:22.324Z,6.000000
2022-10-23T18:30:25.070Z,6.000000
2022-10-23T18:35:28.234Z,6.000000
2022-10-23T18:40:32.700Z,6.000000
2022-10-23T18:45:36.552Z,6.666667
2022-10-23T18:50:19.734Z,7.000000
2022-10-23T18:55:21.748Z,6.285714
2022-10-23T19:00:24.510Z,6.000000
2022-10-23T19:05:26.993Z,6.666667
2022-10-23T19:10:29.393Z,7.000000
2022-10-23T19:15:32.566Z,5.666667
2022-10-23T19:20:16.260Z,5.000000
2022-10-23T19:25:17.974Z,8.333333
2022-10-23T19:30:22.591Z,10.000000
2022-10-23T19:35:24.061Z,7.142857
2022-10-23T19:40:25.791Z,6.000000
2022-10-23T19:45:35.458Z,6.000000
2022-10-23T19:50:32.594Z,6.000000
2022-10-23T19:55:34.940Z,4.000000
2022-10-23T20:00:17.779Z,3.000000
2022-10-23T20:05:20.644Z,5.200000
2022-10-23T20:10:23.604Z,6.000000
2022-10-23T20:15:26.891Z,6.000000
2022-10-23T20:20:31.939Z,6.000000
2022-10-23T20:25:34.277Z,6.000000
2022-10-23T20:30:36.217Z,6.000000
2022-10-23T20:35:19.066Z,6.000000
2022-10-23T20:40:22.377Z,6.000000
2022-10-23T20:45:25.999Z,5.333333
2022-10-23T20:50:30.045Z,5.000000
2022-10-23T20:55:32.732Z,5.666667
2022-10-23T21:00:33.598Z,6.000000
2022-10-23T21:05:17.468Z,5.333333
2022-10-23T21:10:19.325Z,5.000000
2022-10-23T21:15:22.278Z,5.714286
2022-10-23T21:20:25.846Z,6.000000
2022-10-23T21:25:28.208Z,5.333333
2022-10-23T21:30:31.165Z,5.000000
2022-10-23T21:35:34.160Z,5.666667
2022-10-23T21:40:16.635Z,6.000000
2022-10-23T21:45:19.676Z,5.266667
2022-10-23T21:50:22.423Z,5.000000
2022-10-23T21:55:28.021Z,5.000000
2022-10-23T22:00:29.621Z,5.000000
2022-10-23T22:05:32.337Z,5.000000
2022-10-23T22:10:35.943Z,5.000000
2022-10-23T22:15:17.133Z,7.000000
2022-10-23T22:20:20.692Z,8.000000
2022-10-23T22:25:25.355Z,6.571429
2022-10-23T22:30:28.523Z,6.000000
2022-10-23T22:35:32.100Z,5.333333
2022-10-23T22:40:34.209Z,5.000000
2022-10-23T22:45:16.848Z,5.000000
2022-10-23T22:50:19.317Z,5.000000
2022-10-23T22:55:21.855Z,5.733333
2022-10-23T23:00:24.498Z,6.000000
2022-10-23T23:05:27.011Z,5.333333
2022-10-23T23:10:30.314Z,5.000000
2022-10-23T23:15:32.791Z,5.000000
2022-10-23T23:20:16.389Z,5.000000
2022-10-23T23:25:19.153Z,5.000000
2022-10-23T23:30:20.686Z,5.000000
2022-10-23T23:35:23.526Z,5.714286
2022-10-23T23:40:27.226Z,6.000000
2022-10-23T23:45:28.943Z,6.000000
2022-10-23T23:50:31.596Z,6.000000
2022-10-23T23:55:34.564Z,5.333333
